sensor_id;sensor_type;location;lat;lon;timestamp;temperature;humidity
28677;DHT22;15858;48.338;11.078;2023-03-14T00:00:00;10.90;99.90
28677;DHT22;15858;48.338;11.078;2023-03-14T00:02:27;10.90;99.90
28677;DHT22;15858;48.338;11.078;2023-03-14T00:04:55;10.80;99.90
28677;DHT22;15858;48.338;11.078;2023-03-14T00:07:21;10.80;99.90
28677;DHT22;15858;48.338;11.078;2023-03-14T00:09:48;10.80;99.90
28677;DHT22;15858;48.338;11.078;2023-03-14T00:12:14;10.80;99.90
28677;DHT22;15858;48.338;11.078;2023-03-14T00:14:41;10.80;99.90
28677;DHT22;15858;48.338;11.078;2023-03-14T00:17:08;10.80;99.90
28677;DHT22;15858;48.338;11.078;2023-03-14T00:19:34;10.70;99.90
28677;DHT22;15858;48.338;11.078;2023-03-14T00:22:01;10.70;99.90
28677;DHT22;15858;48.338;11.078;2023-03-14T00:24:28;10.70;99.90
28677;DHT22;15858;48.338;11.078;2023-03-14T00:26:55;10.70;99.90
28677;DHT22;15858;48.338;11.078;2023-03-14T00:29:21;10.80;99.90
28677;DHT22;15858;48.338;11.078;2023-03-14T00:31:48;10.80;99.90
28677;DHT22;15858;48.338;11.078;2023-03-14T00:34:14;10.80;99.90
28677;DHT22;15858;48.338;11.078;2023-03-14T00:36:41;10.70;99.90
28677;DHT22;15858;48.338;11.078;2023-03-14T00:39:08;10.70;99.90
28677;DHT22;15858;48.338;11.078;2023-03-14T00:41:34;10.70;99.90
28677;DHT22;15858;48.338;11.078;2023-03-14T00:44:01;10.70;99.90
28677;DHT22;15858;48.338;11.078;2023-03-14T00:46:27;10.70;99.90
28677;DHT22;15858;48.338;11.078;2023-03-14T00:48:54;10.60;99.90
28677;DHT22;15858;48.338;11.078;2023-03-14T00:51:20;10.60;99.90
28677;DHT22;15858;48.338;11.078;2023-03-14T00:53:47;10.60;99.90
28677;DHT22;15858;48.338;11.078;2023-03-14T00:56:14;10.50;99.90
28677;DHT22;15858;48.338;11.078;2023-03-14T00:58:40;10.50;99.90
28677;DHT22;15858;48.338;11.078;2023-03-14T01:01:13;10.50;99.90
28677;DHT22;15858;48.338;11.078;2023-03-14T01:03:40;10.40;99.90
28677;DHT22;15858;48.338;11.078;2023-03-14T01:06:19;10.30;99.90
28677;DHT22;15858;48.338;11.078;2023-03-14T01:08:46;10.30;99.90
28677;DHT22;15858;48.338;11.078;2023-03-14T01:11:27;10.30;99.90
28677;DHT22;15858;48.338;11.078;2023-03-14T01:13:55;10.20;99.90
28677;DHT22;15858;48.338;11.078;2023-03-14T01:16:24;10.20;99.90
28677;DHT22;15858;48.338;11.078;2023-03-14T01:18:51;10.10;99.90
28677;DHT22;15858;48.338;11.078;2023-03-14T01:21:24;10.00;99.90
28677;DHT22;15858;48.338;11.078;2023-03-14T01:23:52;10.00;99.90
28677;DHT22;15858;48.338;11.078;2023-03-14T01:26:21;9.90;99.90
28677;DHT22;15858;48.338;11.078;2023-03-14T01:28:49;9.90;99.90
28677;DHT22;15858;48.338;11.078;2023-03-14T01:31:16;9.80;99.90
28677;DHT22;15858;48.338;11.078;2023-03-14T01:33:44;9.80;99.90
28677;DHT22;15858;48.338;11.078;2023-03-14T01:36:11;9.80;99.90
28677;DHT22;15858;48.338;11.078;2023-03-14T01:38:39;9.70;99.90
28677;DHT22;15858;48.338;11.078;2023-03-14T01:41:07;9.70;99.90
28677;DHT22;15858;48.338;11.078;2023-03-14T01:43:34;9.70;99.90
28677;DHT22;15858;48.338;11.078;2023-03-14T01:51:31;9.60;99.90
28677;DHT22;15858;48.338;11.078;2023-03-14T01:56:42;9.40;99.90
28677;DHT22;15858;48.338;11.078;2023-03-14T01:59:10;9.40;99.90
28677;DHT22;15858;48.338;11.078;2023-03-14T02:01:38;9.30;99.90
28677;DHT22;15858;48.338;11.078;2023-03-14T02:04:08;9.20;99.90
28677;DHT22;15858;48.338;11.078;2023-03-14T02:06:56;9.30;99.90
28677;DHT22;15858;48.338;11.078;2023-03-14T02:09:24;9.20;99.90
28677;DHT22;15858;48.338;11.078;2023-03-14T02:11:51;9.20;99.90
28677;DHT22;15858;48.338;11.078;2023-03-14T02:14:27;9.20;99.90
28677;DHT22;15858;48.338;11.078;2023-03-14T02:16:55;9.20;99.90
28677;DHT22;15858;48.338;11.078;2023-03-14T02:22:16;9.00;99.90
28677;DHT22;15858;48.338;11.078;2023-03-14T02:25:00;9.00;99.90
28677;DHT22;15858;48.338;11.078;2023-03-14T02:27:29;9.00;99.90
28677;DHT22;15858;48.338;11.078;2023-03-14T02:29:59;9.10;99.90
28677;DHT22;15858;48.338;11.078;2023-03-14T02:32:28;9.00;99.90
28677;DHT22;15858;48.338;11.078;2023-03-14T02:34:58;9.00;99.90
28677;DHT22;15858;48.338;11.078;2023-03-14T02:37:37;9.00;99.90
28677;DHT22;15858;48.338;11.078;2023-03-14T02:40:05;9.00;99.90
28677;DHT22;15858;48.338;11.078;2023-03-14T02:42:32;9.00;99.90
28677;DHT22;15858;48.338;11.078;2023-03-14T02:47:34;8.90;99.90
28677;DHT22;15858;48.338;11.078;2023-03-14T02:50:09;8.90;99.90
28677;DHT22;15858;48.338;11.078;2023-03-14T02:52:36;8.90;99.90
28677;DHT22;15858;48.338;11.078;2023-03-14T02:55:02;8.90;99.90
28677;DHT22;15858;48.338;11.078;2023-03-14T02:57:29;8.90;99.90
28677;DHT22;15858;48.338;11.078;2023-03-14T03:00:00;8.90;99.90
28677;DHT22;15858;48.338;11.078;2023-03-14T03:02:28;8.90;99.90
28677;DHT22;15858;48.338;11.078;2023-03-14T03:04:54;9.00;99.90
28677;DHT22;15858;48.338;11.078;2023-03-14T03:07:21;8.90;99.90
28677;DHT22;15858;48.338;11.078;2023-03-14T03:09:47;8.90;99.90
28677;DHT22;15858;48.338;11.078;2023-03-14T03:12:14;8.90;99.90
28677;DHT22;15858;48.338;11.078;2023-03-14T03:14:40;8.90;99.90
28677;DHT22;15858;48.338;11.078;2023-03-14T03:17:10;9.00;99.90
28677;DHT22;15858;48.338;11.078;2023-03-14T03:19:40;8.90;99.90
28677;DHT22;15858;48.338;11.078;2023-03-14T03:22:07;8.90;99.90
28677;DHT22;15858;48.338;11.078;2023-03-14T03:24:34;8.90;99.90
28677;DHT22;15858;48.338;11.078;2023-03-14T03:27:00;8.90;99.90
28677;DHT22;15858;48.338;11.078;2023-03-14T03:29:27;8.90;99.90
28677;DHT22;15858;48.338;11.078;2023-03-14T03:31:53;8.90;99.90
28677;DHT22;15858;48.338;11.078;2023-03-14T03:34:20;8.90;99.90
28677;DHT22;15858;48.338;11.078;2023-03-14T03:36:47;8.90;99.90
28677;DHT22;15858;48.338;11.078;2023-03-14T03:39:13;9.00;99.90
28677;DHT22;15858;48.338;11.078;2023-03-14T03:41:40;8.90;99.90
28677;DHT22;15858;48.338;11.078;2023-03-14T03:44:06;9.00;99.90
28677;DHT22;15858;48.338;11.078;2023-03-14T03:46:33;9.00;99.90
28677;DHT22;15858;48.338;11.078;2023-03-14T03:49:00;8.90;99.90
28677;DHT22;15858;48.338;11.078;2023-03-14T03:51:27;8.90;99.90
28677;DHT22;15858;48.338;11.078;2023-03-14T03:53:53;8.90;99.90
28677;DHT22;15858;48.338;11.078;2023-03-14T03:56:20;8.90;99.90
28677;DHT22;15858;48.338;11.078;2023-03-14T03:58:47;8.90;99.90
28677;DHT22;15858;48.338;11.078;2023-03-14T04:01:13;9.00;99.90
28677;DHT22;15858;48.338;11.078;2023-03-14T04:03:40;8.90;99.90
28677;DHT22;15858;48.338;11.078;2023-03-14T04:06:12;8.90;99.90
28677;DHT22;15858;48.338;11.078;2023-03-14T04:08:39;8.90;99.90
28677;DHT22;15858;48.338;11.078;2023-03-14T04:11:06;8.90;99.90
28677;DHT22;15858;48.338;11.078;2023-03-14T04:13:33;8.80;99.90
28677;DHT22;15858;48.338;11.078;2023-03-14T04:15:59;8.80;99.90
28677;DHT22;15858;48.338;11.078;2023-03-14T04:18:26;8.80;99.90
28677;DHT22;15858;48.338;11.078;2023-03-14T04:20:57;8.80;99.90
28677;DHT22;15858;48.338;11.078;2023-03-14T04:23:24;8.70;99.90
28677;DHT22;15858;48.338;11.078;2023-03-14T04:25:52;8.70;99.90
28677;DHT22;15858;48.338;11.078;2023-03-14T04:28:19;8.60;99.90
28677;DHT22;15858;48.338;11.078;2023-03-14T04:30:45;8.60;99.90
28677;DHT22;15858;48.338;11.078;2023-03-14T04:33:12;8.60;99.90
28677;DHT22;15858;48.338;11.078;2023-03-14T04:35:39;8.60;99.90
28677;DHT22;15858;48.338;11.078;2023-03-14T04:38:05;8.60;99.90
28677;DHT22;15858;48.338;11.078;2023-03-14T04:40:32;8.60;99.90
28677;DHT22;15858;48.338;11.078;2023-03-14T04:42:58;8.60;99.90
28677;DHT22;15858;48.338;11.078;2023-03-14T04:45:25;8.60;99.90
28677;DHT22;15858;48.338;11.078;2023-03-14T04:47:52;8.60;99.90
28677;DHT22;15858;48.338;11.078;2023-03-14T04:50:18;8.50;99.90
28677;DHT22;15858;48.338;11.078;2023-03-14T04:52:45;8.60;99.90
28677;DHT22;15858;48.338;11.078;2023-03-14T04:55:11;8.60;99.90
28677;DHT22;15858;48.338;11.078;2023-03-14T04:57:38;8.60;99.90
28677;DHT22;15858;48.338;11.078;2023-03-14T05:00:05;8.60;99.90
28677;DHT22;15858;48.338;11.078;2023-03-14T05:02:33;8.60;99.90
28677;DHT22;15858;48.338;11.078;2023-03-14T05:05:00;8.60;99.90
28677;DHT22;15858;48.338;11.078;2023-03-14T05:07:27;8.60;99.90
28677;DHT22;15858;48.338;11.078;2023-03-14T05:09:53;8.60;99.90
28677;DHT22;15858;48.338;11.078;2023-03-14T05:12:20;8.60;99.90
28677;DHT22;15858;48.338;11.078;2023-03-14T05:14:47;8.60;99.90
28677;DHT22;15858;48.338;11.078;2023-03-14T05:17:14;8.60;99.90
28677;DHT22;15858;48.338;11.078;2023-03-14T05:19:41;8.60;99.90
28677;DHT22;15858;48.338;11.078;2023-03-14T05:22:09;8.60;99.90
28677;DHT22;15858;48.338;11.078;2023-03-14T05:24:36;8.60;99.90
28677;DHT22;15858;48.338;11.078;2023-03-14T05:27:03;8.50;99.90
28677;DHT22;15858;48.338;11.078;2023-03-14T05:29:30;8.50;99.90
28677;DHT22;15858;48.338;11.078;2023-03-14T05:31:57;8.50;99.90
28677;DHT22;15858;48.338;11.078;2023-03-14T05:34:23;8.50;99.90
28677;DHT22;15858;48.338;11.078;2023-03-14T05:36:51;8.50;99.90
28677;DHT22;15858;48.338;11.078;2023-03-14T05:39:18;8.50;99.90
28677;DHT22;15858;48.338;11.078;2023-03-14T05:41:44;8.40;99.90
28677;DHT22;15858;48.338;11.078;2023-03-14T05:44:11;8.50;99.90
28677;DHT22;15858;48.338;11.078;2023-03-14T05:46:37;8.50;99.90
28677;DHT22;15858;48.338;11.078;2023-03-14T05:49:04;8.50;99.90
28677;DHT22;15858;48.338;11.078;2023-03-14T05:51:31;8.50;99.90
28677;DHT22;15858;48.338;11.078;2023-03-14T05:53:57;8.40;99.90
28677;DHT22;15858;48.338;11.078;2023-03-14T05:56:24;8.40;99.90
28677;DHT22;15858;48.338;11.078;2023-03-14T05:58:50;8.40;99.90
28677;DHT22;15858;48.338;11.078;2023-03-14T06:01:17;8.40;99.90
28677;DHT22;15858;48.338;11.078;2023-03-14T06:03:44;8.40;99.90
28677;DHT22;15858;48.338;11.078;2023-03-14T06:06:10;8.40;99.90
28677;DHT22;15858;48.338;11.078;2023-03-14T06:08:37;8.40;99.90
28677;DHT22;15858;48.338;11.078;2023-03-14T06:11:04;8.40;99.90
28677;DHT22;15858;48.338;11.078;2023-03-14T06:13:30;8.40;99.90
28677;DHT22;15858;48.338;11.078;2023-03-14T06:15:57;8.40;99.90
28677;DHT22;15858;48.338;11.078;2023-03-14T06:18:23;8.40;99.90
28677;DHT22;15858;48.338;11.078;2023-03-14T06:20:53;8.40;99.90
28677;DHT22;15858;48.338;11.078;2023-03-14T06:23:20;8.40;99.90
28677;DHT22;15858;48.338;11.078;2023-03-14T06:25:47;8.40;99.90
28677;DHT22;15858;48.338;11.078;2023-03-14T06:28:13;8.40;99.90
28677;DHT22;15858;48.338;11.078;2023-03-14T06:30:40;8.40;99.90
28677;DHT22;15858;48.338;11.078;2023-03-14T06:33:07;8.40;99.90
28677;DHT22;15858;48.338;11.078;2023-03-14T06:35:33;8.40;99.90
28677;DHT22;15858;48.338;11.078;2023-03-14T06:38:00;8.50;99.90
28677;DHT22;15858;48.338;11.078;2023-03-14T06:40:26;8.50;99.90
28677;DHT22;15858;48.338;11.078;2023-03-14T06:42:53;8.50;99.90
28677;DHT22;15858;48.338;11.078;2023-03-14T06:45:20;8.50;99.90
28677;DHT22;15858;48.338;11.078;2023-03-14T06:47:46;8.40;99.90
28677;DHT22;15858;48.338;11.078;2023-03-14T06:50:13;8.50;99.90
28677;DHT22;15858;48.338;11.078;2023-03-14T06:52:40;8.50;99.90
28677;DHT22;15858;48.338;11.078;2023-03-14T06:55:07;8.50;99.90
28677;DHT22;15858;48.338;11.078;2023-03-14T06:57:34;8.60;99.90
28677;DHT22;15858;48.338;11.078;2023-03-14T07:00:01;8.50;99.90
28677;DHT22;15858;48.338;11.078;2023-03-14T07:02:27;8.60;99.90
28677;DHT22;15858;48.338;11.078;2023-03-14T07:05:08;8.60;99.90
28677;DHT22;15858;48.338;11.078;2023-03-14T07:07:35;8.60;99.90
28677;DHT22;15858;48.338;11.078;2023-03-14T07:10:02;8.60;99.90
28677;DHT22;15858;48.338;11.078;2023-03-14T07:12:28;8.60;99.90
28677;DHT22;15858;48.338;11.078;2023-03-14T07:14:55;8.60;99.90
28677;DHT22;15858;48.338;11.078;2023-03-14T07:17:24;8.70;99.90
28677;DHT22;15858;48.338;11.078;2023-03-14T07:19:51;8.60;99.90
28677;DHT22;15858;48.338;11.078;2023-03-14T07:22:17;8.60;99.90
28677;DHT22;15858;48.338;11.078;2023-03-14T07:24:44;8.60;99.90
28677;DHT22;15858;48.338;11.078;2023-03-14T07:27:10;8.60;99.90
28677;DHT22;15858;48.338;11.078;2023-03-14T07:29:37;8.60;99.90
28677;DHT22;15858;48.338;11.078;2023-03-14T07:32:04;8.70;99.90
28677;DHT22;15858;48.338;11.078;2023-03-14T07:34:30;8.70;99.90
28677;DHT22;15858;48.338;11.078;2023-03-14T07:36:57;8.70;99.90
28677;DHT22;15858;48.338;11.078;2023-03-14T07:39:23;8.70;99.90
28677;DHT22;15858;48.338;11.078;2023-03-14T07:41:50;8.80;99.90
28677;DHT22;15858;48.338;11.078;2023-03-14T07:44:17;8.80;99.90
28677;DHT22;15858;48.338;11.078;2023-03-14T07:46:43;8.80;99.90
28677;DHT22;15858;48.338;11.078;2023-03-14T07:49:10;8.80;99.90
28677;DHT22;15858;48.338;11.078;2023-03-14T07:51:37;8.90;99.90
28677;DHT22;15858;48.338;11.078;2023-03-14T07:54:03;8.90;99.90
28677;DHT22;15858;48.338;11.078;2023-03-14T07:56:30;8.90;99.90
28677;DHT22;15858;48.338;11.078;2023-03-14T07:58:57;8.90;99.90
28677;DHT22;15858;48.338;11.078;2023-03-14T08:01:24;9.00;99.90
28677;DHT22;15858;48.338;11.078;2023-03-14T08:03:50;9.00;99.90
28677;DHT22;15858;48.338;11.078;2023-03-14T08:06:17;9.10;99.90
28677;DHT22;15858;48.338;11.078;2023-03-14T08:08:43;9.10;99.90
28677;DHT22;15858;48.338;11.078;2023-03-14T08:11:10;9.10;99.90
28677;DHT22;15858;48.338;11.078;2023-03-14T08:13:37;9.10;99.90
28677;DHT22;15858;48.338;11.078;2023-03-14T08:16:04;9.20;99.90
28677;DHT22;15858;48.338;11.078;2023-03-14T08:18:31;9.20;99.90
28677;DHT22;15858;48.338;11.078;2023-03-14T08:20:58;9.30;99.90
28677;DHT22;15858;48.338;11.078;2023-03-14T08:23:24;9.30;99.90
28677;DHT22;15858;48.338;11.078;2023-03-14T08:25:51;9.40;99.90
28677;DHT22;15858;48.338;11.078;2023-03-14T08:28:18;9.40;99.90
28677;DHT22;15858;48.338;11.078;2023-03-14T08:30:45;9.40;99.90
28677;DHT22;15858;48.338;11.078;2023-03-14T08:33:13;9.40;99.90
28677;DHT22;15858;48.338;11.078;2023-03-14T08:35:40;9.40;99.90
28677;DHT22;15858;48.338;11.078;2023-03-14T08:38:06;9.40;99.90
28677;DHT22;15858;48.338;11.078;2023-03-14T08:40:33;9.40;99.90
28677;DHT22;15858;48.338;11.078;2023-03-14T08:42:59;9.40;99.90
28677;DHT22;15858;48.338;11.078;2023-03-14T08:45:26;9.50;99.90
28677;DHT22;15858;48.338;11.078;2023-03-14T08:47:53;9.50;99.90
28677;DHT22;15858;48.338;11.078;2023-03-14T08:50:19;9.50;99.90
28677;DHT22;15858;48.338;11.078;2023-03-14T08:52:46;9.50;99.90
28677;DHT22;15858;48.338;11.078;2023-03-14T08:55:14;9.60;99.90
28677;DHT22;15858;48.338;11.078;2023-03-14T08:57:40;9.70;99.90
28677;DHT22;15858;48.338;11.078;2023-03-14T09:00:08;9.80;99.90
28677;DHT22;15858;48.338;11.078;2023-03-14T09:02:34;9.80;99.90
28677;DHT22;15858;48.338;11.078;2023-03-14T09:05:01;10.00;99.90
28677;DHT22;15858;48.338;11.078;2023-03-14T09:07:28;10.20;99.90
28677;DHT22;15858;48.338;11.078;2023-03-14T09:09:54;10.30;99.90
28677;DHT22;15858;48.338;11.078;2023-03-14T09:12:21;10.30;99.90
28677;DHT22;15858;48.338;11.078;2023-03-14T09:14:48;10.40;99.90
28677;DHT22;15858;48.338;11.078;2023-03-14T09:17:14;10.50;99.90
28677;DHT22;15858;48.338;11.078;2023-03-14T09:19:41;10.50;99.90
28677;DHT22;15858;48.338;11.078;2023-03-14T09:22:07;10.50;99.90
28677;DHT22;15858;48.338;11.078;2023-03-14T09:24:34;10.40;99.90
28677;DHT22;15858;48.338;11.078;2023-03-14T09:27:01;10.50;99.90
28677;DHT22;15858;48.338;11.078;2023-03-14T09:29:27;10.50;99.90
28677;DHT22;15858;48.338;11.078;2023-03-14T09:31:54;10.50;99.90
28677;DHT22;15858;48.338;11.078;2023-03-14T09:34:21;10.60;99.90
28677;DHT22;15858;48.338;11.078;2023-03-14T09:36:47;10.60;99.90
28677;DHT22;15858;48.338;11.078;2023-03-14T09:39:14;10.70;99.90
28677;DHT22;15858;48.338;11.078;2023-03-14T09:41:51;10.80;99.90
28677;DHT22;15858;48.338;11.078;2023-03-14T09:44:27;10.90;99.90
28677;DHT22;15858;48.338;11.078;2023-03-14T09:46:58;11.20;99.90
28677;DHT22;15858;48.338;11.078;2023-03-14T09:49:38;11.40;99.90
28677;DHT22;15858;48.338;11.078;2023-03-14T09:52:13;11.60;99.90
28677;DHT22;15858;48.338;11.078;2023-03-14T09:54:47;11.70;99.90
28677;DHT22;15858;48.338;11.078;2023-03-14T09:57:20;11.80;99.90
28677;DHT22;15858;48.338;11.078;2023-03-14T09:59:49;11.80;99.90
28677;DHT22;15858;48.338;11.078;2023-03-14T10:02:32;11.90;99.90
28677;DHT22;15858;48.338;11.078;2023-03-14T10:05:00;12.00;99.90
28677;DHT22;15858;48.338;11.078;2023-03-14T10:07:32;12.10;99.90
28677;DHT22;15858;48.338;11.078;2023-03-14T10:09:59;12.10;99.90
28677;DHT22;15858;48.338;11.078;2023-03-14T10:12:34;12.10;99.90
28677;DHT22;15858;48.338;11.078;2023-03-14T10:15:07;12.30;99.90
28677;DHT22;15858;48.338;11.078;2023-03-14T10:17:47;12.30;99.90
28677;DHT22;15858;48.338;11.078;2023-03-14T10:22:53;12.30;99.90
28677;DHT22;15858;48.338;11.078;2023-03-14T10:25:29;12.20;99.90
28677;DHT22;15858;48.338;11.078;2023-03-14T10:27:57;12.20;99.90
28677;DHT22;15858;48.338;11.078;2023-03-14T10:33:11;12.50;99.90
28677;DHT22;15858;48.338;11.078;2023-03-14T10:35:37;12.70;99.90
28677;DHT22;15858;48.338;11.078;2023-03-14T10:38:04;12.70;99.90
28677;DHT22;15858;48.338;11.078;2023-03-14T10:40:34;12.60;99.90
28677;DHT22;15858;48.338;11.078;2023-03-14T10:43:11;12.40;99.90
28677;DHT22;15858;48.338;11.078;2023-03-14T10:45:43;12.40;99.90
28677;DHT22;15858;48.338;11.078;2023-03-14T10:54:00;12.90;99.90
28677;DHT22;15858;48.338;11.078;2023-03-14T10:56:34;13.00;99.90
28677;DHT22;15858;48.338;11.078;2023-03-14T10:59:01;13.10;99.90
28677;DHT22;15858;48.338;11.078;2023-03-14T11:07:29;13.40;99.90
28677;DHT22;15858;48.338;11.078;2023-03-14T11:10:03;13.50;99.90
28677;DHT22;15858;48.338;11.078;2023-03-14T11:20:36;13.40;99.90
28677;DHT22;15858;48.338;11.078;2023-03-14T11:26:13;13.20;99.90
28677;DHT22;15858;48.338;11.078;2023-03-14T11:28:48;13.10;99.90
28677;DHT22;15858;48.338;11.078;2023-03-14T11:31:27;12.90;99.90
28677;DHT22;15858;48.338;11.078;2023-03-14T11:36:38;12.90;99.90
28677;DHT22;15858;48.338;11.078;2023-03-14T11:39:16;12.90;99.90
28677;DHT22;15858;48.338;11.078;2023-03-14T11:41:46;12.90;99.90
28677;DHT22;15858;48.338;11.078;2023-03-14T11:49:49;12.80;99.90
28677;DHT22;15858;48.338;11.078;2023-03-14T11:55:06;12.60;99.90
28677;DHT22;15858;48.338;11.078;2023-03-14T11:57:33;12.50;99.90
28677;DHT22;15858;48.338;11.078;2023-03-14T12:00:19;12.50;99.90
28677;DHT22;15858;48.338;11.078;2023-03-14T12:13:33;12.30;99.90
28677;DHT22;15858;48.338;11.078;2023-03-14T12:16:03;12.20;99.90
28677;DHT22;15858;48.338;11.078;2023-03-14T12:18:37;12.20;99.90
28677;DHT22;15858;48.338;11.078;2023-03-14T12:21:08;12.30;99.90
28677;DHT22;15858;48.338;11.078;2023-03-14T12:23:53;12.30;99.90
28677;DHT22;15858;48.338;11.078;2023-03-14T12:26:25;12.20;99.90
28677;DHT22;15858;48.338;11.078;2023-03-14T12:29:15;12.20;99.90
28677;DHT22;15858;48.338;11.078;2023-03-14T12:31:45;12.20;99.90
28677;DHT22;15858;48.338;11.078;2023-03-14T12:42:11;12.20;99.90
28677;DHT22;15858;48.338;11.078;2023-03-14T12:44:43;12.20;99.90
28677;DHT22;15858;48.338;11.078;2023-03-14T12:49:51;12.10;99.90
28677;DHT22;15858;48.338;11.078;2023-03-14T12:52:22;12.10;99.90
28677;DHT22;15858;48.338;11.078;2023-03-14T12:55:12;11.90;99.90
28677;DHT22;15858;48.338;11.078;2023-03-14T12:57:45;11.80;99.90
28677;DHT22;15858;48.338;11.078;2023-03-14T13:00:19;11.50;99.90
28677;DHT22;15858;48.338;11.078;2023-03-14T13:02:48;11.40;99.90
28677;DHT22;15858;48.338;11.078;2023-03-14T13:05:18;11.40;99.90
28677;DHT22;15858;48.338;11.078;2023-03-14T13:10:29;11.50;99.90
28677;DHT22;15858;48.338;11.078;2023-03-14T13:13:21;11.40;99.90
28677;DHT22;15858;48.338;11.078;2023-03-14T13:15:49;11.30;99.90
28677;DHT22;15858;48.338;11.078;2023-03-14T13:18:40;11.10;99.90
28677;DHT22;15858;48.338;11.078;2023-03-14T13:21:25;11.00;99.90
28677;DHT22;15858;48.338;11.078;2023-03-14T13:24:00;10.90;99.90
28677;DHT22;15858;48.338;11.078;2023-03-14T13:26:39;11.00;99.90
28677;DHT22;15858;48.338;11.078;2023-03-14T13:29:29;10.80;99.90
28677;DHT22;15858;48.338;11.078;2023-03-14T13:34:29;10.70;99.90
28677;DHT22;15858;48.338;11.078;2023-03-14T13:36:56;10.60;99.90
28677;DHT22;15858;48.338;11.078;2023-03-14T13:39:25;10.60;99.90
28677;DHT22;15858;48.338;11.078;2023-03-14T13:41:53;10.60;99.90
28677;DHT22;15858;48.338;11.078;2023-03-14T13:44:36;10.40;99.90
28677;DHT22;15858;48.338;11.078;2023-03-14T13:49:33;9.70;99.90
28677;DHT22;15858;48.338;11.078;2023-03-14T13:51:59;9.60;99.90
28677;DHT22;15858;48.338;11.078;2023-03-14T13:54:27;9.40;99.90
28677;DHT22;15858;48.338;11.078;2023-03-14T13:57:05;9.40;99.90
28677;DHT22;15858;48.338;11.078;2023-03-14T13:59:33;9.30;99.90
28677;DHT22;15858;48.338;11.078;2023-03-14T14:02:12;9.20;99.90
28677;DHT22;15858;48.338;11.078;2023-03-14T14:04:43;9.20;99.90
28677;DHT22;15858;48.338;11.078;2023-03-14T14:07:14;9.10;99.90
28677;DHT22;15858;48.338;11.078;2023-03-14T14:09:48;9.00;99.90
28677;DHT22;15858;48.338;11.078;2023-03-14T14:15:27;8.80;99.90
28677;DHT22;15858;48.338;11.078;2023-03-14T14:17:54;8.70;99.90
28677;DHT22;15858;48.338;11.078;2023-03-14T14:20:35;8.70;99.90
28677;DHT22;15858;48.338;11.078;2023-03-14T14:23:29;8.70;99.90
28677;DHT22;15858;48.338;11.078;2023-03-14T14:25:57;8.70;99.90
28677;DHT22;15858;48.338;11.078;2023-03-14T14:28:27;8.70;99.90
28677;DHT22;15858;48.338;11.078;2023-03-14T14:31:19;8.60;99.90
28677;DHT22;15858;48.338;11.078;2023-03-14T14:34:00;8.70;99.90
28677;DHT22;15858;48.338;11.078;2023-03-14T14:39:04;8.60;99.90
28677;DHT22;15858;48.338;11.078;2023-03-14T14:41:34;8.60;99.90
28677;DHT22;15858;48.338;11.078;2023-03-14T14:44:03;8.60;99.90
28677;DHT22;15858;48.338;11.078;2023-03-14T14:46:31;8.60;99.90
28677;DHT22;15858;48.338;11.078;2023-03-14T14:49:06;8.50;99.90
28677;DHT22;15858;48.338;11.078;2023-03-14T14:51:42;8.40;99.90
28677;DHT22;15858;48.338;11.078;2023-03-14T14:54:15;8.40;99.90
28677;DHT22;15858;48.338;11.078;2023-03-14T14:56:47;8.40;99.90
28677;DHT22;15858;48.338;11.078;2023-03-14T14:59:24;8.40;99.90
28677;DHT22;15858;48.338;11.078;2023-03-14T15:01:55;8.40;99.90
28677;DHT22;15858;48.338;11.078;2023-03-14T15:04:22;8.40;99.90
28677;DHT22;15858;48.338;11.078;2023-03-14T15:06:49;8.30;99.90
28677;DHT22;15858;48.338;11.078;2023-03-14T15:09:16;8.30;99.90
28677;DHT22;15858;48.338;11.078;2023-03-14T15:11:43;8.30;99.90
28677;DHT22;15858;48.338;11.078;2023-03-14T15:14:10;8.30;99.90
28677;DHT22;15858;48.338;11.078;2023-03-14T15:16:36;8.20;99.90
28677;DHT22;15858;48.338;11.078;2023-03-14T15:19:18;8.30;99.90
28677;DHT22;15858;48.338;11.078;2023-03-14T15:21:54;8.50;99.90
28677;DHT22;15858;48.338;11.078;2023-03-14T15:24:21;8.60;99.90
28677;DHT22;15858;48.338;11.078;2023-03-14T15:26:48;8.70;99.90
28677;DHT22;15858;48.338;11.078;2023-03-14T15:29:14;8.80;99.90
28677;DHT22;15858;48.338;11.078;2023-03-14T15:31:41;8.90;99.90
28677;DHT22;15858;48.338;11.078;2023-03-14T15:34:08;9.00;99.90
28677;DHT22;15858;48.338;11.078;2023-03-14T15:36:36;9.10;99.90
28677;DHT22;15858;48.338;11.078;2023-03-14T15:39:05;9.10;99.90
28677;DHT22;15858;48.338;11.078;2023-03-14T15:41:32;9.30;99.90
28677;DHT22;15858;48.338;11.078;2023-03-14T15:43:58;9.30;99.90
28677;DHT22;15858;48.338;11.078;2023-03-14T15:46:25;9.30;99.90
28677;DHT22;15858;48.338;11.078;2023-03-14T15:48:54;9.20;99.90
28677;DHT22;15858;48.338;11.078;2023-03-14T15:51:20;9.10;99.90
28677;DHT22;15858;48.338;11.078;2023-03-14T15:53:47;8.90;99.90
28677;DHT22;15858;48.338;11.078;2023-03-14T15:56:16;8.80;99.90
28677;DHT22;15858;48.338;11.078;2023-03-14T15:58:44;8.80;99.90
28677;DHT22;15858;48.338;11.078;2023-03-14T16:01:11;8.60;99.90
28677;DHT22;15858;48.338;11.078;2023-03-14T16:03:38;8.50;99.90
28677;DHT22;15858;48.338;11.078;2023-03-14T16:06:05;8.50;99.90
28677;DHT22;15858;48.338;11.078;2023-03-14T16:08:31;8.50;99.90
28677;DHT22;15858;48.338;11.078;2023-03-14T16:10:59;8.60;99.90
28677;DHT22;15858;48.338;11.078;2023-03-14T16:13:25;8.40;99.90
28677;DHT22;15858;48.338;11.078;2023-03-14T16:15:57;8.40;99.90
28677;DHT22;15858;48.338;11.078;2023-03-14T16:18:26;8.30;99.90
28677;DHT22;15858;48.338;11.078;2023-03-14T16:20:58;8.20;99.90
28677;DHT22;15858;48.338;11.078;2023-03-14T16:23:26;8.10;99.90
28677;DHT22;15858;48.338;11.078;2023-03-14T16:25:53;8.10;99.90
28677;DHT22;15858;48.338;11.078;2023-03-14T16:28:20;8.10;99.90
28677;DHT22;15858;48.338;11.078;2023-03-14T16:30:47;8.10;99.90
28677;DHT22;15858;48.338;11.078;2023-03-14T16:33:14;8.00;99.90
28677;DHT22;15858;48.338;11.078;2023-03-14T16:35:52;8.00;99.90
28677;DHT22;15858;48.338;11.078;2023-03-14T16:38:19;7.90;99.90
28677;DHT22;15858;48.338;11.078;2023-03-14T16:40:55;7.80;99.90
28677;DHT22;15858;48.338;11.078;2023-03-14T16:43:21;7.80;99.90
28677;DHT22;15858;48.338;11.078;2023-03-14T16:45:49;7.70;99.90
28677;DHT22;15858;48.338;11.078;2023-03-14T16:48:16;7.70;99.90
28677;DHT22;15858;48.338;11.078;2023-03-14T16:50:42;7.70;99.90
28677;DHT22;15858;48.338;11.078;2023-03-14T16:53:09;7.70;99.90
28677;DHT22;15858;48.338;11.078;2023-03-14T16:55:41;7.60;99.90
28677;DHT22;15858;48.338;11.078;2023-03-14T16:58:08;7.60;99.90
28677;DHT22;15858;48.338;11.078;2023-03-14T17:00:35;7.60;99.90
28677;DHT22;15858;48.338;11.078;2023-03-14T17:03:02;7.50;99.90